Time;durP1;ratioP1;P1;durP2;ratioP2;P2;SDS_P1;SDS_P2;PMS_P1;PMS_P2;Temp;Humidity;BMP_temperature;BMP_pressure;BME280_temperature;BME280_humidity;BME280_pressure;Samples;Min_cycle;Max_cycle;Signal;HPM_P1;HPM_P2
2022/12/17 13:07:28;;;;;;;3.88;1.00;;;;;;;;;;5127806;27;20503;-74
2022/12/17 13:09:58;;;;;;;5.10;0.90;;;;;;;;;;5126691;27;20607;-76
2022/12/17 13:12:43;;;;;;;7.03;0.80;;;;;;;;;;5124325;27;20045;-75
2022/12/17 13:15:24;;;;;;;2.75;0.73;;;;;;;;;;5127478;27;20031;-76
2022/12/17 13:18:18;;;;;;;3.53;1.00;;;;;;;;;;5127937;27;20039;-74
2022/12/17 13:21:03;;;;;;;5.68;1.17;;;;;;;;;;5127313;27;20043;-74
2022/12/17 13:23:36;;;;;;;5.57;1.00;;;;;;;;;;5128176;27;20031;-75
2022/12/17 13:26:16;;;;;;;4.43;0.77;;;;;;;;;;5126833;27;20027;-74
2022/12/17 13:29:23;;;;;;;5.85;0.85;;;;;;;;;;5126521;27;20039;-74
2022/12/17 13:32:02;;;;;;;3.20;0.70;;;;;;;;;;5126111;27;20505;-79
2022/12/17 13:34:49;;;;;;;4.18;0.70;;;;;;;;;;5125863;27;20047;-73
2022/12/17 13:37:46;;;;;;;4.03;0.90;;;;;;;;;;5127151;27;20618;-72
2022/12/17 13:40:43;;;;;;;6.72;0.80;;;;;;;;;;5127486;27;20039;-75
2022/12/17 13:43:18;;;;;;;4.32;0.80;;;;;;;;;;5127207;28;20051;-71
2022/12/17 13:45:49;;;;;;;;;;;;;;;;;;5127377;28;20046;-73
2022/12/17 13:48:26;;;;;;;4.13;1.08;;;;;;;;;;5124779;28;19923;-73
2022/12/17 13:51:04;;;;;;;6.90;0.90;;;;;;;;;;5122940;28;20054;-75
2022/12/17 13:53:34;;;;;;;2.33;0.80;;;;;;;;;;5126951;28;20054;-74
2022/12/17 13:56:04;;;;;;;2.58;0.70;;;;;;;;;;5125838;28;20039;-77
2022/12/17 13:58:35;;;;;;;3.47;0.88;;;;;;;;;;5124892;28;20054;-74
2022/12/17 14:01:07;;;;;;;4.15;0.98;;;;;;;;;;5125786;28;20047;-72
2022/12/17 14:03:49;;;;;;;2.90;0.60;;;;;;;;;;5125183;28;20043;-72
2022/12/17 14:06:37;;;;;;;5.78;1.05;;;;;;;;;;5126417;27;20051;-75
2022/12/17 14:09:17;;;;;;;1.30;0.40;;;;;;;;;;5127451;28;20794;-73
2022/12/17 14:14:41;;;;;;;4.75;1.00;;;;;;;;;;5123115;27;20043;-74
2022/12/17 14:17:22;;;;;;;6.13;0.80;;;;;;;;;;5127896;27;20051;-74
2022/12/17 14:20:15;;;;;;;1.50;0.60;;;;;;;;;;5125024;27;20047;-75
2022/12/17 14:22:59;;;;;;;2.42;0.75;;;;;;;;;;5129976;27;20047;-73
2022/12/17 14:25:36;;;;;;;2.30;0.85;;;;;;;;;;5128945;27;20063;-74
2022/12/17 14:28:29;;;;;;;1.45;0.50;;;;;;;;;;5128465;27;20528;-77
2022/12/17 14:31:17;;;;;;;2.60;0.57;;;;;;;;;;5128150;27;20051;-78
2022/12/17 14:34:09;;;;;;;3.58;0.73;;;;;;;;;;5115140;27;20078;-76
2022/12/17 14:36:45;;;;;;;4.00;1.23;;;;;;;;;;5126590;27;20407;-75
2022/12/17 14:39:20;;;;;;;5.88;0.90;;;;;;;;;;5130032;27;20039;-74
2022/12/17 14:50:36;;;;;;;3.20;0.65;;;;;;;;;;5137931;27;20944;-75
2022/12/17 14:53:26;;;;;;;2.60;0.80;;;;;;;;;;5117508;28;20043;-74
2022/12/17 14:55:58;;;;;;;1.58;0.57;;;;;;;;;;5119412;28;20050;-76
2022/12/17 14:58:28;;;;;;;3.42;0.98;;;;;;;;;;5087744;28;20406;-76
2022/12/17 15:01:07;;;;;;;1.42;0.47;;;;;;;;;;5102612;28;20062;-75
2022/12/17 15:03:41;;;;;;;6.13;0.70;;;;;;;;;;5101304;28;20035;-76
2022/12/17 15:06:17;;;;;;;2.42;0.45;;;;;;;;;;5082801;28;20048;-74
2022/12/17 15:08:49;;;;;;;5.80;0.80;;;;;;;;;;5102611;28;20044;-74
2022/12/17 15:11:22;;;;;;;2.47;0.52;;;;;;;;;;5102097;28;20370;-74
2022/12/17 15:13:53;;;;;;;3.92;0.80;;;;;;;;;;5083697;28;20056;-75
2022/12/17 15:16:24;;;;;;;1.60;0.65;;;;;;;;;;5104104;28;20405;-76
2022/12/17 15:18:54;;;;;;;5.85;1.80;;;;;;;;;;5102607;28;20044;-75
2022/12/17 15:21:26;;;;;;;3.65;0.77;;;;;;;;;;5101895;28;20052;-74
2022/12/17 15:23:56;;;;;;;5.07;0.88;;;;;;;;;;5101635;28;20409;-75
2022/12/17 15:26:27;;;;;;;2.75;0.60;;;;;;;;;;5101494;28;20040;-74
2022/12/17 15:28:57;;;;;;;2.78;0.50;;;;;;;;;;5083360;28;20126;-76
2022/12/17 15:31:27;;;;;;;3.67;1.13;;;;;;;;;;5100689;28;20051;-75
2022/12/17 15:34:04;;;;;;;5.93;0.55;;;;;;;;;;5091311;28;20048;-76
2022/12/17 15:36:34;;;;;;;3.72;0.65;;;;;;;;;;5097675;28;20573;-76
2022/12/17 15:39:05;;;;;;;3.80;0.60;;;;;;;;;;5101590;28;20409;-75
2022/12/17 15:44:24;;;;;;;13.57;1.00;;;;;;;;;;5101836;28;20040;-75
2022/12/17 15:47:07;;;;;;;1.45;0.60;;;;;;;;;;5084403;28;20067;-75
2022/12/17 15:49:53;;;;;;;1.67;0.60;;;;;;;;;;5102176;28;20047;-76
2022/12/17 15:52:23;;;;;;;2.78;0.65;;;;;;;;;;5102019;28;20050;-76
2022/12/17 15:54:55;;;;;;;4.13;0.65;;;;;;;;;;5102570;28;20075;-78
2022/12/17 15:57:25;;;;;;;4.80;0.70;;;;;;;;;;5101480;28;20040;-76
2022/12/17 15:59:55;;;;;;;5.55;0.95;;;;;;;;;;5098900;28;20040;-75
2022/12/17 16:02:25;;;;;;;2.05;0.65;;;;;;;;;;5087850;28;20040;-73
2022/12/17 16:04:55;;;;;;;4.55;1.05;;;;;;;;;;5088493;28;20047;-75
2022/12/17 16:07:25;;;;;;;3.80;0.82;;;;;;;;;;5088065;28;20036;-74
2022/12/17 16:09:55;;;;;;;2.75;0.80;;;;;;;;;;5087810;28;20048;-75
2022/12/17 16:12:33;;;;;;;2.83;0.88;;;;;;;;;;5087044;28;20056;-73
2022/12/17 16:15:04;;;;;;;3.90;0.75;;;;;;;;;;5088398;28;20047;-73
2022/12/17 16:17:35;;;;;;;3.25;0.90;;;;;;;;;;5070902;28;20063;-74
2022/12/17 16:20:06;;;;;;;4.97;1.13;;;;;;;;;;5067936;28;20063;-75
2022/12/17 16:22:37;;;;;;;2.85;0.50;;;;;;;;;;5087686;28;20367;-73
2022/12/17 16:25:07;;;;;;;2.55;0.80;;;;;;;;;;5088636;28;20047;-72
2022/12/17 16:27:37;;;;;;;5.28;0.85;;;;;;;;;;5087638;28;20410;-77
2022/12/17 16:30:10;;;;;;;3.33;0.95;;;;;;;;;;5089051;28;20760;-75
2022/12/17 16:32:40;;;;;;;2.13;0.70;;;;;;;;;;5088834;28;20040;-73
2022/12/17 16:35:10;;;;;;;4.00;0.75;;;;;;;;;;5089306;28;20398;-73
2022/12/17 16:37:40;;;;;;;4.28;0.57;;;;;;;;;;5071171;28;20035;-76
2022/12/17 16:40:11;;;;;;;4.38;0.70;;;;;;;;;;5088386;28;20044;-74
2022/12/17 16:42:41;;;;;;;1.00;0.60;;;;;;;;;;5089130;28;20048;-74
2022/12/17 16:45:11;;;;;;;2.45;0.70;;;;;;;;;;5087386;28;20052;-73
2022/12/17 16:47:41;;;;;;;6.10;0.82;;;;;;;;;;5088737;28;20044;-74
2022/12/17 16:50:11;;;;;;;5.07;0.85;;;;;;;;;;5069692;28;20486;-73
2022/12/17 16:52:40;;;;;;;4.10;1.00;;;;;;;;;;5088469;28;20040;-72
2022/12/17 16:55:10;;;;;;;3.03;0.63;;;;;;;;;;5070937;28;20036;-73
2022/12/17 16:57:42;;;;;;;1.70;0.68;;;;;;;;;;5088328;28;20047;-73
2022/12/17 17:00:12;;;;;;;1.75;1.05;;;;;;;;;;5088860;28;20056;-75
2022/12/17 17:02:42;;;;;;;3.40;0.60;;;;;;;;;;5088161;28;20048;-72
2022/12/17 17:05:19;;;;;;;2.78;0.70;;;;;;;;;;5088042;28;20035;-74
2022/12/17 17:07:49;;;;;;;2.42;0.65;;;;;;;;;;5087465;28;20527;-75
2022/12/17 17:10:19;;;;;;;5.78;0.70;;;;;;;;;;5087802;28;20044;-73
2022/12/17 17:12:51;;;;;;;4.78;1.20;;;;;;;;;;5067188;28;20048;-75
2022/12/17 17:15:22;;;;;;;6.22;1.75;;;;;;;;;;5087518;28;20394;-75
2022/12/17 17:17:52;;;;;;;5.95;2.33;;;;;;;;;;5087692;28;20044;-73
2022/12/17 17:20:31;;;;;;;4.65;1.00;;;;;;;;;;5069267;28;20059;-77
2022/12/17 17:23:01;;;;;;;4.30;1.02;;;;;;;;;;5088308;28;20063;-75
2022/12/17 17:25:32;;;;;;;4.00;1.20;;;;;;;;;;5088363;28;20462;-73
2022/12/17 17:28:22;;;;;;;2.42;0.63;;;;;;;;;;5087874;28;20616;-72
2022/12/17 17:31:02;;;;;;;2.45;0.80;;;;;;;;;;5087500;28;20883;-75
2022/12/17 17:33:38;;;;;;;7.47;0.93;;;;;;;;;;5086683;28;20585;-74
2022/12/17 17:36:12;;;;;;;2.00;0.90;;;;;;;;;;5067432;28;20529;-78
2022/12/17 17:38:42;;;;;;;5.07;1.10;;;;;;;;;;5087083;28;20077;-74
2022/12/17 17:41:16;;;;;;;4.05;1.15;;;;;;;;;;5086173;28;20048;-73
2022/12/17 17:43:51;;;;;;;6.72;0.90;;;;;;;;;;5068275;28;20051;-74
2022/12/17 17:46:21;;;;;;;;;;;;;;;;;;5088211;28;20121;-76
2022/12/17 17:48:55;;;;;;;4.88;1.00;;;;;;;;;;5087443;28;19923;-74
2022/12/17 17:51:29;;;;;;;3.63;0.85;;;;;;;;;;5068422;28;20048;-72
2022/12/17 17:54:19;;;;;;;3.33;0.85;;;;;;;;;;5087530;28;20043;-72
2022/12/17 17:56:50;;;;;;;7.10;1.50;;;;;;;;;;5087134;28;20043;-72
2022/12/17 17:59:21;;;;;;;4.22;1.23;;;;;;;;;;5087885;28;20051;-73
2022/12/17 18:02:01;;;;;;;2.35;0.80;;;;;;;;;;5070578;28;20054;-72
2022/12/17 18:04:32;;;;;;;7.43;1.60;;;;;;;;;;5087373;28;20048;-72
2022/12/17 18:07:02;;;;;;;3.92;1.00;;;;;;;;;;5086263;28;20044;-73
2022/12/17 18:09:53;;;;;;;3.20;0.93;;;;;;;;;;5086055;28;20051;-73
2022/12/17 18:15:12;;;;;;;317.30;12.52;;;;;;;;;;5086648;28;20040;-74
2022/12/17 18:17:52;;;;;;;312.77;12.60;;;;;;;;;;5086616;28;20036;-72
2022/12/17 18:20:23;;;;;;;162.73;7.03;;;;;;;;;;5085391;28;20130;-73
2022/12/17 18:22:53;;;;;;;105.28;4.63;;;;;;;;;;5085929;28;20052;-72
2022/12/17 18:25:22;;;;;;;11.90;1.23;;;;;;;;;;5085805;28;20493;-73
2022/12/17 18:27:53;;;;;;;49.60;2.30;;;;;;;;;;5085711;28;20044;-74
2022/12/17 18:30:23;;;;;;;12.98;1.50;;;;;;;;;;5085898;28;20055;-76
2022/12/17 18:32:54;;;;;;;6.38;1.23;;;;;;;;;;5066775;28;20398;-74
2022/12/17 18:35:26;;;;;;;6.00;1.10;;;;;;;;;;5085705;28;20043;-74
2022/12/17 18:37:57;;;;;;;5.43;0.90;;;;;;;;;;5085845;28;20047;-75
2022/12/17 18:40:28;;;;;;;4.40;0.90;;;;;;;;;;5067592;28;20044;-74
2022/12/17 18:45:51;;;;;;;5.32;1.20;;;;;;;;;;5085789;28;20051;-72
2022/12/17 18:48:22;;;;;;;2.35;0.80;;;;;;;;;;5085240;28;20047;-72
2022/12/17 18:50:52;;;;;;;4.05;1.17;;;;;;;;;;5085771;28;20059;-77
2022/12/17 18:53:26;;;;;;;5.22;0.95;;;;;;;;;;5085302;28;20055;-73
2022/12/17 18:55:56;;;;;;;4.95;1.10;;;;;;;;;;5068235;28;20048;-73
2022/12/17 18:58:29;;;;;;;3.05;1.00;;;;;;;;;;5085416;28;20047;-74
2022/12/17 19:00:59;;;;;;;6.00;1.10;;;;;;;;;;5085094;28;20044;-73
2022/12/17 19:03:29;;;;;;;4.50;1.08;;;;;;;;;;5085201;28;20055;-73
2022/12/17 19:06:04;;;;;;;4.35;1.02;;;;;;;;;;5085614;28;20044;-72
2022/12/17 19:08:35;;;;;;;4.68;0.90;;;;;;;;;;5084565;28;20525;-72
2022/12/17 19:11:17;;;;;;;5.25;1.02;;;;;;;;;;5085289;28;20052;-74
2022/12/17 19:13:48;;;;;;;13.15;1.13;;;;;;;;;;5084566;28;20396;-72
2022/12/17 19:16:21;;;;;;;6.38;1.00;;;;;;;;;;5094350;28;20512;-73
2022/12/17 19:18:53;;;;;;;4.10;0.80;;;;;;;;;;5086849;28;20044;-71
2022/12/17 19:21:26;;;;;;;5.30;1.20;;;;;;;;;;5105168;28;20044;-72
2022/12/17 19:23:58;;;;;;;6.15;1.13;;;;;;;;;;5085870;28;20051;-71
2022/12/17 19:26:30;;;;;;;6.57;1.17;;;;;;;;;;5104397;28;20043;-73
2022/12/17 19:29:01;;;;;;;6.57;1.13;;;;;;;;;;5104898;28;20043;-73
2022/12/17 19:31:31;;;;;;;6.32;1.63;;;;;;;;;;5105036;28;20044;-72
2022/12/17 19:34:05;;;;;;;5.47;1.02;;;;;;;;;;5105405;28;20047;-74
2022/12/17 19:36:37;;;;;;;5.30;0.82;;;;;;;;;;5108442;28;20389;-72
2022/12/17 19:39:10;;;;;;;6.85;1.23;;;;;;;;;;5109048;28;20048;-72
2022/12/17 19:41:43;;;;;;;7.00;1.70;;;;;;;;;;5108678;28;20457;-76
2022/12/17 19:44:15;;;;;;;9.00;0.98;;;;;;;;;;5108319;28;20052;-73
2022/12/17 19:46:45;;;;;;;4.05;0.88;;;;;;;;;;5109032;28;20035;-73
2022/12/17 19:49:16;;;;;;;7.68;0.98;;;;;;;;;;5108322;28;20047;-73
2022/12/17 19:51:47;;;;;;;8.30;1.42;;;;;;;;;;5109163;28;20043;-74
2022/12/17 19:54:18;;;;;;;7.05;1.00;;;;;;;;;;5107652;28;20066;-74
2022/12/17 19:56:48;;;;;;;7.63;0.90;;;;;;;;;;5108744;28;20040;-72
2022/12/17 19:59:17;;;;;;;3.45;1.05;;;;;;;;;;5090122;28;20496;-76
2022/12/17 20:01:48;;;;;;;2.88;1.10;;;;;;;;;;5108388;28;20535;-75
2022/12/17 20:04:20;;;;;;;13.93;1.50;;;;;;;;;;5109054;28;20496;-74
2022/12/17 20:06:50;;;;;;;9.07;1.05;;;;;;;;;;5091666;28;20551;-72
2022/12/17 20:09:19;;;;;;;27.13;15.60;;;;;;;;;;5090288;28;20815;-73
2022/12/17 20:11:49;;;;;;;10.10;3.40;;;;;;;;;;5108403;28;20047;-73
2022/12/17 20:14:22;;;;;;;5.10;0.77;;;;;;;;;;5107981;28;20039;-72
2022/12/17 20:16:56;;;;;;;5.72;1.25;;;;;;;;;;5108153;28;20040;-72
2022/12/17 20:19:32;;;;;;;8.52;1.00;;;;;;;;;;5108183;28;20055;-72
2022/12/17 20:22:06;;;;;;;11.32;3.75;;;;;;;;;;5107808;28;20052;-75
2022/12/17 20:24:38;;;;;;;8.73;1.23;;;;;;;;;;5106662;28;20054;-73
2022/12/17 20:27:09;;;;;;;5.20;1.00;;;;;;;;;;5108261;28;20039;-73
2022/12/17 20:29:40;;;;;;;13.80;1.48;;;;;;;;;;5108601;28;20056;-74
2022/12/17 20:32:09;;;;;;;7.25;1.15;;;;;;;;;;5107958;28;20043;-73
2022/12/17 20:34:39;;;;;;;3.33;0.73;;;;;;;;;;5107855;28;20396;-72
2022/12/17 20:37:10;;;;;;;6.53;1.00;;;;;;;;;;5108148;28;20057;-72
2022/12/17 20:39:40;;;;;;;4.80;0.98;;;;;;;;;;5108301;28;20044;-73
2022/12/17 20:42:11;;;;;;;4.95;0.82;;;;;;;;;;5107871;28;20039;-73
2022/12/17 20:44:41;;;;;;;8.02;1.20;;;;;;;;;;5107204;28;20062;-75
2022/12/17 20:47:15;;;;;;;8.13;1.10;;;;;;;;;;5089837;28;20043;-73
2022/12/17 20:49:45;;;;;;;5.63;0.88;;;;;;;;;;5105439;28;20047;-75
2022/12/17 20:52:15;;;;;;;5.10;1.35;;;;;;;;;;5107048;28;20043;-76
2022/12/17 20:54:45;;;;;;;9.73;1.30;;;;;;;;;;5108339;28;20044;-73
2022/12/17 20:57:15;;;;;;;3.88;0.80;;;;;;;;;;5108423;28;20047;-73
2022/12/17 20:59:44;;;;;;;4.55;1.15;;;;;;;;;;5108523;28;20050;-73
2022/12/17 21:02:15;;;;;;;52.20;3.15;;;;;;;;;;5108282;28;20055;-76
2022/12/17 21:04:47;;;;;;;24.85;2.70;;;;;;;;;;5108863;28;20043;-73
2022/12/17 21:07:18;;;;;;;18.88;1.65;;;;;;;;;;5109057;28;20490;-73
2022/12/17 21:09:48;;;;;;;10.98;0.88;;;;;;;;;;5108454;28;20044;-72
2022/12/17 21:12:17;;;;;;;20.42;1.10;;;;;;;;;;5108477;28;20028;-74
2022/12/17 21:14:47;;;;;;;23.67;2.00;;;;;;;;;;5108424;28;20042;-75
2022/12/17 21:17:17;;;;;;;8.88;0.88;;;;;;;;;;5108388;28;20044;-74
2022/12/17 21:19:47;;;;;;;8.15;1.40;;;;;;;;;;5089137;28;20043;-73
2022/12/17 21:22:17;;;;;;;2.90;0.75;;;;;;;;;;5108703;28;20572;-73
2022/12/17 21:24:48;;;;;;;20.08;1.40;;;;;;;;;;5108573;28;20468;-73
2022/12/17 21:27:17;;;;;;;13.32;1.17;;;;;;;;;;5108220;28;20500;-72
2022/12/17 21:29:47;;;;;;;3.08;0.93;;;;;;;;;;5108360;28;20481;-73
2022/12/17 21:32:17;;;;;;;6.15;0.60;;;;;;;;;;5108432;28;20473;-71
2022/12/17 21:34:47;;;;;;;4.22;1.00;;;;;;;;;;5108911;28;20043;-74
2022/12/17 21:37:17;;;;;;;8.13;1.40;;;;;;;;;;5108270;28;20040;-73
2022/12/17 21:39:47;;;;;;;6.13;0.80;;;;;;;;;;5107667;28;20047;-75
2022/12/17 21:45:11;;;;;;;6.00;0.90;;;;;;;;;;5107804;28;20039;-72
2022/12/17 21:47:41;;;;;;;8.85;0.88;;;;;;;;;;5108103;28;20512;-75
2022/12/17 21:50:10;;;;;;;3.30;0.88;;;;;;;;;;5107610;28;20052;-74
2022/12/17 21:52:40;;;;;;;5.43;1.48;;;;;;;;;;5107844;28;20054;-72
2022/12/17 21:55:10;;;;;;;6.65;1.33;;;;;;;;;;5107546;28;20039;-73
2022/12/17 21:57:40;;;;;;;4.50;0.82;;;;;;;;;;5107510;28;20042;-73
2022/12/17 22:00:11;;;;;;;1.83;0.40;;;;;;;;;;5107622;28;20039;-74
2022/12/17 22:02:41;;;;;;;6.88;1.35;;;;;;;;;;5107278;28;20039;-72
2022/12/17 22:05:11;;;;;;;6.43;1.52;;;;;;;;;;5107701;28;20427;-74
2022/12/17 22:07:46;;;;;;;1.58;0.70;;;;;;;;;;5108173;28;20039;-74
2022/12/17 22:10:19;;;;;;;5.22;0.82;;;;;;;;;;5107662;28;20039;-74
2022/12/17 22:16:05;;;;;;;9.63;1.48;;;;;;;;;;5106946;28;20035;-74
2022/12/17 22:18:41;;;;;;;6.47;0.50;;;;;;;;;;5107396;28;20823;-74
2022/12/17 22:21:11;;;;;;;8.43;1.15;;;;;;;;;;5107711;28;20051;-73
2022/12/17 22:23:42;;;;;;;2.65;0.95;;;;;;;;;;5107024;28;20050;-77
2022/12/17 22:26:12;;;;;;;6.25;0.98;;;;;;;;;;5107406;28;20416;-74
2022/12/17 22:28:49;;;;;;;6.28;0.90;;;;;;;;;;5107242;28;20039;-75
2022/12/17 22:34:12;;;;;;;8.25;1.40;;;;;;;;;;5107733;28;20081;-74
2022/12/17 22:37:02;;;;;;;3.75;0.68;;;;;;;;;;5107180;28;20039;-73
2022/12/17 22:39:52;;;;;;;5.05;1.10;;;;;;;;;;5106640;28;20489;-74
2022/12/17 22:45:50;;;;;;;4.32;0.77;;;;;;;;;;5106940;28;20406;-74
2022/12/17 22:48:22;;;;;;;4.53;0.60;;;;;;;;;;5106779;28;20527;-80
2022/12/17 22:50:54;;;;;;;3.70;0.55;;;;;;;;;;5105879;28;20059;-81
2022/12/17 22:53:36;;;;;;;7.35;0.90;;;;;;;;;;5107440;28;20040;-82
2022/12/17 22:56:08;;;;;;;3.38;0.60;;;;;;;;;;5107150;28;20043;-81
2022/12/17 22:58:58;;;;;;;8.70;0.85;;;;;;;;;;5091931;28;20052;-74
2022/12/17 23:01:28;;;;;;;6.00;1.45;;;;;;;;;;5085921;28;20044;-73
2022/12/17 23:04:00;;;;;;;5.40;0.93;;;;;;;;;;5084816;28;20048;-73
2022/12/17 23:06:30;;;;;;;5.18;0.70;;;;;;;;;;5086970;28;20556;-77
2022/12/17 23:09:00;;;;;;;5.80;0.90;;;;;;;;;;5087081;28;20036;-73
2022/12/17 23:11:30;;;;;;;5.68;1.20;;;;;;;;;;5088740;28;20503;-74
2022/12/17 23:14:00;;;;;;;6.78;0.93;;;;;;;;;;5072944;28;20036;-74
2022/12/17 23:16:30;;;;;;;3.28;0.55;;;;;;;;;;5090705;28;20566;-76
2022/12/17 23:19:01;;;;;;;5.25;1.40;;;;;;;;;;5090816;28;20059;-74
2022/12/17 23:21:31;;;;;;;5.07;0.88;;;;;;;;;;5089229;28;20048;-75
2022/12/17 23:24:01;;;;;;;4.50;0.60;;;;;;;;;;5089841;28;20044;-74
2022/12/17 23:26:34;;;;;;;2.30;0.90;;;;;;;;;;5089826;28;20052;-76
2022/12/17 23:29:07;;;;;;;4.63;0.52;;;;;;;;;;5090078;28;20043;-75
2022/12/17 23:31:43;;;;;;;2.10;0.70;;;;;;;;;;5090118;28;20040;-77
2022/12/17 23:34:14;;;;;;;6.55;0.70;;;;;;;;;;5090107;28;20036;-74
2022/12/17 23:36:44;;;;;;;10.13;1.05;;;;;;;;;;5090620;28;20047;-73
2022/12/17 23:39:14;;;;;;;7.57;0.88;;;;;;;;;;5072279;28;20375;-74
2022/12/17 23:41:44;;;;;;;5.38;0.90;;;;;;;;;;5089876;28;20055;-74
2022/12/17 23:44:14;;;;;;;6.57;0.98;;;;;;;;;;5089516;28;20052;-74
2022/12/17 23:46:44;;;;;;;2.88;0.73;;;;;;;;;;5089799;28;20633;-74
2022/12/17 23:49:14;;;;;;;6.63;1.02;;;;;;;;;;5090191;28;20052;-74
2022/12/17 23:51:44;;;;;;;3.13;0.60;;;;;;;;;;5087500;28;20052;-73
2022/12/17 23:54:14;;;;;;;6.47;1.00;;;;;;;;;;5089902;28;20051;-75
2022/12/17 23:56:44;;;;;;;7.63;1.45;;;;;;;;;;5070430;28;20055;-74
2022/12/17 23:59:14;;;;;;;5.18;0.70;;;;;;;;;;5089589;28;20040;-74
